createdAt,value
2024-02-24T00:00:35.657Z,17.90
2024-02-24T00:03:03.212Z,19.90
2024-02-24T00:05:30.965Z,24.60
2024-02-24T00:07:58.940Z,21.10
2024-02-24T00:10:26.615Z,30.70
2024-02-24T00:12:54.167Z,27.10
2024-02-24T00:15:21.722Z,42.90
2024-02-24T00:17:49.433Z,27.30
2024-02-24T00:20:17.093Z,40.10
2024-02-24T00:22:44.704Z,32.20
2024-02-24T00:25:12.263Z,70.40
2024-02-24T00:27:39.828Z,48.80
2024-02-24T00:30:07.510Z,23.30
2024-02-24T00:32:35.643Z,27.30
2024-02-24T00:35:03.587Z,25.60
2024-02-24T00:37:31.289Z,23.70
2024-02-24T00:39:58.859Z,18.50
2024-02-24T00:42:26.619Z,17.50
2024-02-24T00:44:54.404Z,21.40
2024-02-24T00:47:21.984Z,17.30
2024-02-24T00:49:49.695Z,20.40
2024-02-24T00:52:17.358Z,20.80
2024-02-24T00:54:44.928Z,19.70
2024-02-24T00:57:12.784Z,18.00
2024-02-24T00:59:40.489Z,22.40
2024-02-24T01:02:08.254Z,18.40
2024-02-24T01:04:35.990Z,18.50
2024-02-24T01:07:03.777Z,23.20
2024-02-24T01:09:31.504Z,18.60
2024-02-24T01:11:59.305Z,22.30
2024-02-24T01:14:26.982Z,21.20
2024-02-24T01:16:54.692Z,24.40
2024-02-24T01:19:22.420Z,31.40
2024-02-24T01:21:50.118Z,19.70
2024-02-24T01:24:18.105Z,22.50
2024-02-24T01:26:45.770Z,21.80
2024-02-24T01:29:13.455Z,19.10
2024-02-24T01:31:41.068Z,21.80
2024-02-24T01:34:08.823Z,19.00
2024-02-24T01:36:36.487Z,18.30
2024-02-24T01:39:04.073Z,19.10
2024-02-24T01:41:31.868Z,20.20
2024-02-24T01:43:59.585Z,20.30
2024-02-24T01:46:27.246Z,22.80
2024-02-24T01:48:55.274Z,19.70
2024-02-24T01:51:22.980Z,21.20
2024-02-24T01:53:50.664Z,20.40
2024-02-24T01:56:18.218Z,19.60
2024-02-24T01:58:45.921Z,21.00
2024-02-24T02:01:13.551Z,24.20
2024-02-24T02:03:41.402Z,20.10
2024-02-24T02:06:09.120Z,18.90
2024-02-24T02:08:36.808Z,19.90
2024-02-24T02:11:04.730Z,22.00
2024-02-24T02:13:33.665Z,22.20
2024-02-24T02:18:31.776Z,20.70
2024-02-24T02:21:01.053Z,18.50
2024-02-24T02:23:28.632Z,20.20
2024-02-24T02:25:56.389Z,17.30
2024-02-24T02:28:24.046Z,30.90
2024-02-24T02:30:51.677Z,21.70
2024-02-24T02:33:19.674Z,18.70
2024-02-24T02:35:47.586Z,24.90
2024-02-24T02:38:15.640Z,18.80
2024-02-24T02:40:43.272Z,18.90
2024-02-24T02:43:10.843Z,18.80
2024-02-24T02:45:38.915Z,25.40
2024-02-24T02:48:06.553Z,21.50
2024-02-24T02:50:34.372Z,25.20
2024-02-24T02:53:01.895Z,23.50
2024-02-24T02:55:29.564Z,22.30
2024-02-24T02:57:57.120Z,21.90
2024-02-24T03:00:24.686Z,22.00
2024-02-24T03:02:52.697Z,19.30
2024-02-24T03:05:20.350Z,19.10
2024-02-24T03:07:48.069Z,19.20
2024-02-24T03:10:15.658Z,15.70
2024-02-24T03:12:43.393Z,16.70
2024-02-24T03:15:10.962Z,16.40
2024-02-24T03:17:38.647Z,20.60
2024-02-24T03:20:06.424Z,16.30
2024-02-24T03:22:34.040Z,16.60
2024-02-24T03:25:01.700Z,17.80
2024-02-24T03:27:29.352Z,18.10
2024-02-24T03:29:57.332Z,16.40
2024-02-24T03:32:25.039Z,15.40
2024-02-24T03:34:52.852Z,15.40
2024-02-24T03:37:20.413Z,15.90
2024-02-24T03:39:48.176Z,12.70
2024-02-24T03:42:15.750Z,18.70
2024-02-24T03:44:43.423Z,15.90
2024-02-24T03:47:11.123Z,11.70
2024-02-24T03:49:38.992Z,12.90
2024-02-24T03:52:06.795Z,12.50
2024-02-24T03:54:34.654Z,11.00
2024-02-24T03:57:02.220Z,11.40
2024-02-24T03:59:29.867Z,10.20
2024-02-24T04:01:57.641Z,13.10
2024-02-24T04:04:25.246Z,11.10
2024-02-24T04:06:52.848Z,10.80
2024-02-24T04:09:20.542Z,10.00
2024-02-24T04:11:48.258Z,11.80
2024-02-24T04:14:16.073Z,12.30
2024-02-24T04:16:43.726Z,10.30
2024-02-24T04:19:11.801Z,10.50
2024-02-24T04:21:39.648Z,16.10
2024-02-24T04:24:07.216Z,15.20
2024-02-24T04:26:34.933Z,14.50
2024-02-24T04:29:02.535Z,7.00
2024-02-24T04:31:30.194Z,5.70
2024-02-24T04:33:57.935Z,6.90
2024-02-24T04:36:25.734Z,6.90
2024-02-24T04:38:53.330Z,5.80
2024-02-24T04:41:21.072Z,6.60
2024-02-24T04:43:49.323Z,4.80
2024-02-24T04:46:16.887Z,4.90
2024-02-24T04:48:44.609Z,4.90
2024-02-24T04:51:12.319Z,4.40
2024-02-24T04:53:40.028Z,3.50
2024-02-24T04:56:07.800Z,3.60
2024-02-24T04:58:35.605Z,4.90
2024-02-24T05:01:03.238Z,3.00
2024-02-24T05:03:31.019Z,3.30
2024-02-24T05:05:58.818Z,2.70
2024-02-24T05:08:27.053Z,4.60
2024-02-24T05:10:54.836Z,3.20
2024-02-24T05:13:22.384Z,3.10
2024-02-24T05:15:50.048Z,2.80
2024-02-24T05:18:17.771Z,2.30
2024-02-24T05:20:45.527Z,2.90
2024-02-24T05:23:13.189Z,3.20
2024-02-24T05:25:40.894Z,2.70
2024-02-24T05:28:08.454Z,4.70
2024-02-24T05:30:36.128Z,3.30
2024-02-24T05:33:04.173Z,3.00
2024-02-24T05:35:31.970Z,3.00
2024-02-24T05:37:59.522Z,7.80
2024-02-24T05:40:27.186Z,5.80
2024-02-24T05:42:54.834Z,2.00
2024-02-24T05:45:22.403Z,2.50
2024-02-24T05:47:50.240Z,7.70
2024-02-24T05:50:18.107Z,2.60
2024-02-24T05:52:45.795Z,2.90
2024-02-24T05:55:13.350Z,2.50
2024-02-24T05:57:41.325Z,3.20
2024-02-24T06:00:08.988Z,3.30
2024-02-24T06:02:36.583Z,2.60
2024-02-24T06:05:04.304Z,3.20
2024-02-24T06:07:31.862Z,3.10
2024-02-24T06:09:59.532Z,3.70
2024-02-24T06:12:27.254Z,5.60
2024-02-24T06:14:54.991Z,6.60
2024-02-24T06:17:22.686Z,5.80
2024-02-24T06:19:50.379Z,5.90
2024-02-24T06:22:18.045Z,5.70
2024-02-24T06:24:46.045Z,4.30
2024-02-24T06:27:13.671Z,6.60
2024-02-24T06:29:41.286Z,6.40
2024-02-24T06:32:09.014Z,3.60
2024-02-24T06:34:36.598Z,5.10
2024-02-24T06:37:04.215Z,3.80
2024-02-24T06:39:31.879Z,3.50
2024-02-24T06:41:59.570Z,5.10
2024-02-24T06:44:27.434Z,5.50
2024-02-24T06:46:55.531Z,2.90
2024-02-24T06:49:23.928Z,2.80
2024-02-24T06:51:51.617Z,4.90
2024-02-24T06:54:19.273Z,3.90
2024-02-24T06:56:46.944Z,3.50
2024-02-24T06:59:14.623Z,3.50
2024-02-24T07:01:42.281Z,2.90
2024-02-24T07:04:09.820Z,3.00
2024-02-24T07:06:37.496Z,3.60
2024-02-24T07:09:05.039Z,5.30
2024-02-24T07:11:32.831Z,3.60
2024-02-24T07:14:00.486Z,3.50
2024-02-24T07:16:28.433Z,19.30
2024-02-24T07:18:56.126Z,10.50
2024-02-24T07:21:23.877Z,17.70
2024-02-24T07:23:51.560Z,5.10
2024-02-24T07:26:19.411Z,3.40
2024-02-24T07:28:46.950Z,17.40
2024-02-24T07:31:14.399Z,7.00
2024-02-24T07:33:42.055Z,9.10
2024-02-24T07:36:09.834Z,7.40
2024-02-24T07:38:37.579Z,10.30
2024-02-24T07:41:05.254Z,7.10
2024-02-24T07:43:33.441Z,9.80
2024-02-24T07:46:01.103Z,3.80
2024-02-24T07:48:28.792Z,4.40
2024-02-24T07:50:56.463Z,5.90
2024-02-24T07:53:24.207Z,5.70
2024-02-24T07:55:51.842Z,13.30
2024-02-24T07:58:19.396Z,15.10
2024-02-24T08:00:51.825Z,19.80
2024-02-24T08:03:21.568Z,5.80
2024-02-24T08:05:49.456Z,2.60
2024-02-24T08:08:17.543Z,8.40
2024-02-24T08:10:45.090Z,3.90
2024-02-24T08:13:12.745Z,4.20
2024-02-24T08:15:40.307Z,3.60
2024-02-24T08:18:07.938Z,6.70
2024-02-24T08:20:36.821Z,5.00
2024-02-24T08:23:04.626Z,4.40
2024-02-24T08:25:32.399Z,2.90
2024-02-24T08:27:59.974Z,2.50
2024-02-24T08:30:27.744Z,2.60
2024-02-24T08:32:55.782Z,3.20
2024-02-24T08:35:23.606Z,2.90
2024-02-24T08:37:51.406Z,3.70
2024-02-24T08:40:19.068Z,1.90
2024-02-24T08:42:46.735Z,3.00
2024-02-24T08:45:14.291Z,5.50
2024-02-24T08:47:41.963Z,4.30
2024-02-24T08:50:09.915Z,3.60
2024-02-24T08:52:46.217Z,4.60
2024-02-24T08:55:18.778Z,4.90
2024-02-24T08:57:46.424Z,1.70
2024-02-24T09:00:13.989Z,2.30
2024-02-24T09:02:41.686Z,4.20
2024-02-24T09:05:09.376Z,3.60
2024-02-24T09:07:37.108Z,2.90
2024-02-24T09:10:06.448Z,3.40
2024-02-24T09:12:35.666Z,4.90
2024-02-24T09:15:03.329Z,3.40
2024-02-24T09:17:31.060Z,2.70
2024-02-24T09:19:58.862Z,2.50
2024-02-24T09:22:26.724Z,2.80
2024-02-24T09:24:54.421Z,1.70
2024-02-24T09:27:21.950Z,3.80
2024-02-24T09:29:50.015Z,2.70
2024-02-24T09:32:17.700Z,3.00
2024-02-24T09:34:45.552Z,1.50
2024-02-24T09:37:13.327Z,2.50
2024-02-24T09:39:40.969Z,4.60
2024-02-24T09:42:08.534Z,1.90
2024-02-24T09:44:36.251Z,2.40
2024-02-24T09:47:04.257Z,10.60
2024-02-24T09:49:31.989Z,8.80
2024-02-24T09:51:59.822Z,7.90
2024-02-24T09:54:27.449Z,1.40
2024-02-24T09:56:55.139Z,5.50
2024-02-24T09:59:23.031Z,3.10
2024-02-24T10:01:50.750Z,0.90
2024-02-24T10:04:18.426Z,9.60
2024-02-24T10:06:46.140Z,3.90
2024-02-24T10:09:13.948Z,1.50
2024-02-24T10:11:42.186Z,2.60
2024-02-24T10:14:10.084Z,10.00
2024-02-24T10:19:05.450Z,6.30
2024-02-24T10:21:33.160Z,12.80
2024-02-24T10:26:28.759Z,4.40
2024-02-24T10:28:56.594Z,9.40
2024-02-24T10:31:24.108Z,8.50
2024-02-24T10:33:51.889Z,8.70
2024-02-24T10:36:20.161Z,3.90
2024-02-24T10:38:50.889Z,3.10
2024-02-24T10:41:24.918Z,3.90
2024-02-24T10:44:02.417Z,5.10
2024-02-24T10:46:37.950Z,2.60
2024-02-24T10:49:05.735Z,4.30
2024-02-24T10:51:35.665Z,1.20
2024-02-24T10:54:04.251Z,6.50
2024-02-24T10:56:31.901Z,2.20
2024-02-24T10:58:59.933Z,3.10
2024-02-24T11:01:27.579Z,2.60
2024-02-24T11:03:55.304Z,2.50
2024-02-24T11:06:22.998Z,4.10
2024-02-24T11:08:50.928Z,4.60
2024-02-24T11:11:18.805Z,3.10
2024-02-24T11:13:55.930Z,5.40
2024-02-24T11:16:32.004Z,1.50
2024-02-24T11:18:59.762Z,2.00
2024-02-24T11:21:27.513Z,4.30
2024-02-24T11:23:55.517Z,4.20
2024-02-24T11:26:23.728Z,2.90
2024-02-24T11:28:51.428Z,3.00
2024-02-24T11:31:19.102Z,5.20
2024-02-24T11:33:46.725Z,25.70
2024-02-24T11:36:14.630Z,3.00
2024-02-24T11:38:42.321Z,2.90
2024-02-24T11:41:10.039Z,30.80
2024-02-24T11:43:37.812Z,12.30
2024-02-24T11:46:05.489Z,14.00
2024-02-24T11:51:01.654Z,3.90
2024-02-24T11:53:29.389Z,3.10
2024-02-24T11:55:57.050Z,2.10
2024-02-24T11:58:24.697Z,3.30
2024-02-24T12:00:52.378Z,22.40
2024-02-24T12:03:21.543Z,75.60
2024-02-24T12:05:50.139Z,5.70
2024-02-24T12:08:17.931Z,4.10
2024-02-24T12:10:45.600Z,2.20
2024-02-24T12:13:13.667Z,2.60
2024-02-24T12:15:41.300Z,3.00
2024-02-24T12:18:09.168Z,3.50
2024-02-24T12:20:36.965Z,1.90
2024-02-24T12:23:04.588Z,4.10
2024-02-24T12:25:32.153Z,5.00
2024-02-24T12:28:00.016Z,4.00
2024-02-24T12:30:27.578Z,3.80
2024-02-24T12:32:55.396Z,2.90
2024-02-24T12:35:23.219Z,2.60
2024-02-24T12:37:51.172Z,2.70
2024-02-24T12:40:18.733Z,5.20
2024-02-24T12:42:46.293Z,3.60
2024-02-24T12:47:41.824Z,4.50
2024-02-24T12:50:09.525Z,5.00
2024-02-24T12:57:32.568Z,4.80
2024-02-24T13:00:00.372Z,5.10
2024-02-24T13:02:28.555Z,5.50
2024-02-24T13:07:23.829Z,4.10
2024-02-24T13:09:51.490Z,15.20
2024-02-24T13:12:19.147Z,9.20
2024-02-24T13:14:46.972Z,7.40
2024-02-24T13:17:14.619Z,4.40
2024-02-24T13:19:42.351Z,3.30
2024-02-24T13:22:10.027Z,4.10
2024-02-24T13:24:37.671Z,4.50
2024-02-24T13:27:05.330Z,7.20
2024-02-24T13:29:33.332Z,15.30
2024-02-24T13:41:51.993Z,5.90
2024-02-24T13:44:19.703Z,7.60
2024-02-24T13:46:47.227Z,21.60
2024-02-24T13:49:15.026Z,29.30
2024-02-24T13:51:43.189Z,26.30
2024-02-24T13:54:10.936Z,27.10
2024-02-24T13:56:38.669Z,15.10
2024-02-24T13:59:06.474Z,9.00
2024-02-24T14:01:34.120Z,6.30
2024-02-24T14:04:01.739Z,3.10
2024-02-24T14:06:29.690Z,2.80
2024-02-24T14:08:57.669Z,7.90
2024-02-24T14:11:25.845Z,5.70
2024-02-24T14:13:53.663Z,12.50
2024-02-24T14:16:21.322Z,9.20
2024-02-24T14:18:49.432Z,5.90
2024-02-24T14:23:44.979Z,4.70
2024-02-24T14:26:12.687Z,9.30
2024-02-24T14:28:40.345Z,15.50
2024-02-24T14:31:08.001Z,8.70
2024-02-24T14:33:35.787Z,64.40
2024-02-24T14:36:03.972Z,38.90
2024-02-24T14:38:31.849Z,139.50
2024-02-24T14:40:59.482Z,184.40
2024-02-24T14:43:27.135Z,88.50
2024-02-24T14:45:55.109Z,18.40
2024-02-24T14:48:22.980Z,8.20
2024-02-24T14:50:50.769Z,6.00
2024-02-24T14:53:18.527Z,8.60
2024-02-24T14:55:46.279Z,13.30
2024-02-24T14:58:13.844Z,10.60
2024-02-24T15:00:41.552Z,20.30
2024-02-24T15:03:10.942Z,24.00
2024-02-24T15:05:39.560Z,32.80
2024-02-24T15:08:07.338Z,18.90
2024-02-24T15:10:35.314Z,40.50
2024-02-24T15:13:04.200Z,16.90
2024-02-24T15:15:31.857Z,21.60
2024-02-24T15:17:59.649Z,18.30
2024-02-24T15:20:27.642Z,18.20
2024-02-24T15:22:55.461Z,19.40
2024-02-24T15:25:23.012Z,26.30
2024-02-24T15:27:50.669Z,112.40
2024-02-24T15:30:18.352Z,358.50
2024-02-24T15:32:45.992Z,194.10
2024-02-24T15:35:14.149Z,149.00
2024-02-24T15:37:42.043Z,38.00
2024-02-24T15:40:09.706Z,33.60
2024-02-24T15:42:37.260Z,37.20
2024-02-24T15:45:05.073Z,22.00
2024-02-24T15:47:32.776Z,13.60
2024-02-24T15:50:00.575Z,27.60
2024-02-24T15:52:28.317Z,43.70
2024-02-24T15:54:55.887Z,67.50
2024-02-24T15:57:23.551Z,87.30
2024-02-24T15:59:51.549Z,93.00
2024-02-24T16:02:19.307Z,74.10
2024-02-24T16:04:46.998Z,64.70
2024-02-24T16:07:14.979Z,83.60
2024-02-24T16:09:42.765Z,73.10
2024-02-24T16:12:10.480Z,127.60
2024-02-24T16:14:38.145Z,111.40
2024-02-24T16:17:06.066Z,89.70
2024-02-24T16:19:33.789Z,106.40
2024-02-24T16:22:01.593Z,114.90
2024-02-24T16:24:31.124Z,91.10
2024-02-24T16:26:59.588Z,106.70
2024-02-24T16:29:27.598Z,84.30
2024-02-24T16:31:55.298Z,84.80
2024-02-24T16:34:23.161Z,66.20
2024-02-24T16:36:50.837Z,66.20
2024-02-24T16:39:18.498Z,55.60
2024-02-24T16:41:46.061Z,46.50
2024-02-24T16:44:13.947Z,46.70
2024-02-24T16:46:41.591Z,42.60
2024-02-24T16:49:09.464Z,35.30
2024-02-24T16:51:37.626Z,34.60
2024-02-24T16:54:05.324Z,33.90
2024-02-24T16:56:32.989Z,39.90
2024-02-24T16:59:00.999Z,45.20
2024-02-24T17:01:28.752Z,40.50
2024-02-24T17:03:56.521Z,38.50
2024-02-24T17:06:24.558Z,34.10
2024-02-24T17:08:52.457Z,31.30
2024-02-24T17:11:20.373Z,36.60
2024-02-24T17:13:48.212Z,34.90
2024-02-24T17:16:15.884Z,53.30
2024-02-24T17:18:43.963Z,31.90
2024-02-24T17:21:11.761Z,28.50
2024-02-24T17:23:39.702Z,46.40
2024-02-24T17:26:07.448Z,38.80
2024-02-24T17:28:35.207Z,38.70
2024-02-24T17:31:02.878Z,34.90
2024-02-24T17:33:30.640Z,36.60
2024-02-24T17:35:58.349Z,36.60
2024-02-24T17:38:26.063Z,33.90
2024-02-24T17:40:53.613Z,30.50
2024-02-24T17:43:21.173Z,23.30
2024-02-24T17:45:49.054Z,24.40
2024-02-24T17:48:17.021Z,32.80
2024-02-24T17:50:44.723Z,34.40
2024-02-24T17:53:12.542Z,32.40
2024-02-24T17:55:40.217Z,51.40
2024-02-24T17:58:07.757Z,41.20
2024-02-24T18:00:35.539Z,51.50
2024-02-24T18:03:03.232Z,60.90
2024-02-24T18:05:30.920Z,55.90
2024-02-24T18:07:58.724Z,39.50
2024-02-24T18:10:26.581Z,37.50
2024-02-24T18:12:54.296Z,26.10
2024-02-24T18:15:21.913Z,33.20
2024-02-24T18:17:49.672Z,21.60
2024-02-24T18:20:17.352Z,24.20
2024-02-24T18:22:45.634Z,22.30
2024-02-24T18:25:13.648Z,22.20
2024-02-24T18:27:41.242Z,20.50
2024-02-24T18:30:09.119Z,21.00
2024-02-24T18:32:37.018Z,22.20
2024-02-24T18:35:05.138Z,25.70
2024-02-24T18:37:32.804Z,24.10
2024-02-24T18:40:00.483Z,24.30
2024-02-24T18:42:28.139Z,19.80
2024-02-24T18:44:55.923Z,25.60
2024-02-24T18:47:23.920Z,21.60
2024-02-24T18:49:51.863Z,30.90
2024-02-24T18:52:19.505Z,29.90
2024-02-24T18:54:47.244Z,24.00
2024-02-24T18:57:15.030Z,27.60
2024-02-24T18:59:43.637Z,30.40
2024-02-24T19:04:39.372Z,24.70
2024-02-24T19:07:07.100Z,22.80
2024-02-24T19:09:34.769Z,27.90
2024-02-24T19:12:02.429Z,23.70
2024-02-24T19:14:30.448Z,22.80
2024-02-24T19:16:58.217Z,25.80
2024-02-24T19:19:26.016Z,25.90
2024-02-24T19:21:53.680Z,34.60
2024-02-24T19:24:21.354Z,33.50
2024-02-24T19:26:49.336Z,26.90
2024-02-24T19:29:16.903Z,26.20
2024-02-24T19:31:44.434Z,25.00
2024-02-24T19:34:12.144Z,28.70
2024-02-24T19:36:39.977Z,23.60
2024-02-24T19:39:15.706Z,28.10
2024-02-24T19:41:46.749Z,25.50
2024-02-24T19:44:14.525Z,28.40
2024-02-24T19:46:42.181Z,28.30
2024-02-24T19:49:10.502Z,27.30
2024-02-24T19:51:38.421Z,28.90
2024-02-24T19:54:06.464Z,33.30
2024-02-24T19:56:34.273Z,37.60
2024-02-24T19:59:01.824Z,38.60
2024-02-24T20:01:29.482Z,28.50
2024-02-24T20:03:57.059Z,26.80
2024-02-24T20:06:24.883Z,29.20
2024-02-24T20:08:52.763Z,35.10
2024-02-24T20:11:20.760Z,34.10
2024-02-24T20:13:48.508Z,36.00
2024-02-24T20:16:16.475Z,45.70
2024-02-24T20:18:44.362Z,37.00
2024-02-24T20:21:12.299Z,34.50
2024-02-24T20:23:40.051Z,44.40
2024-02-24T20:26:07.763Z,42.90
2024-02-24T20:28:35.389Z,38.10
2024-02-24T20:31:02.961Z,39.50
2024-02-24T20:33:30.643Z,38.90
2024-02-24T20:35:58.468Z,35.30
2024-02-24T20:38:26.292Z,37.50
2024-02-24T20:40:54.009Z,37.80
2024-02-24T20:43:21.989Z,38.10
2024-02-24T20:45:49.531Z,35.30
2024-02-24T20:48:17.315Z,36.70
2024-02-24T20:50:45.230Z,39.20
2024-02-24T20:53:13.028Z,38.40
2024-02-24T20:55:40.590Z,38.40
2024-02-24T20:58:08.255Z,36.20
2024-02-24T21:00:35.860Z,37.80
2024-02-24T21:03:03.738Z,32.90
2024-02-24T21:05:31.676Z,32.40
2024-02-24T21:07:59.924Z,32.80
2024-02-24T21:10:27.513Z,37.50
2024-02-24T21:12:55.148Z,35.20
2024-02-24T21:15:22.706Z,37.40
2024-02-24T21:17:50.742Z,37.30
2024-02-24T21:20:18.642Z,38.00
2024-02-24T21:22:46.313Z,38.10
2024-02-24T21:25:14.070Z,35.90
2024-02-24T21:27:41.625Z,32.30
2024-02-24T21:30:09.339Z,33.70
2024-02-24T21:32:37.579Z,29.30
2024-02-24T21:35:05.364Z,26.80
2024-02-24T21:37:33.095Z,28.10
2024-02-24T21:40:00.647Z,24.50
2024-02-24T21:42:28.305Z,24.50
2024-02-24T21:44:55.922Z,31.20
2024-02-24T21:47:23.605Z,32.30
2024-02-24T21:49:51.397Z,25.70
2024-02-24T21:52:18.959Z,26.40
2024-02-24T21:54:46.619Z,28.30
2024-02-24T21:57:14.514Z,29.80
2024-02-24T21:59:42.317Z,29.90
2024-02-24T22:02:09.909Z,30.80
2024-02-24T22:04:37.461Z,29.10
2024-02-24T22:07:05.229Z,32.90
2024-02-24T22:09:32.894Z,29.20
2024-02-24T22:12:00.605Z,32.80
2024-02-24T22:14:28.332Z,35.50
2024-02-24T22:16:55.989Z,37.30
2024-02-24T22:19:23.715Z,34.00
2024-02-24T22:21:51.708Z,38.30
2024-02-24T22:24:20.816Z,37.40
2024-02-24T22:26:48.647Z,35.00
2024-02-24T22:29:16.446Z,30.20
2024-02-24T22:31:44.106Z,30.80
2024-02-24T22:34:11.907Z,32.80
2024-02-24T22:36:39.640Z,27.20
2024-02-24T22:39:07.466Z,30.00
2024-02-24T22:41:35.388Z,28.20
2024-02-24T22:44:02.944Z,31.50
2024-02-24T22:46:30.589Z,29.80
2024-02-24T22:48:58.598Z,31.30
2024-02-24T22:51:26.425Z,33.20
2024-02-24T22:53:54.034Z,31.60
2024-02-24T22:56:21.775Z,34.80
2024-02-24T22:58:49.422Z,30.70
2024-02-24T23:01:17.047Z,31.50
2024-02-24T23:03:44.663Z,29.60
2024-02-24T23:06:12.616Z,31.70
2024-02-24T23:08:40.643Z,31.00
2024-02-24T23:11:08.377Z,30.60
2024-02-24T23:13:36.416Z,31.80
2024-02-24T23:16:04.054Z,30.70
2024-02-24T23:18:31.952Z,33.30
2024-02-24T23:20:59.792Z,41.00
2024-02-24T23:23:27.473Z,37.60
2024-02-24T23:25:55.220Z,35.20
2024-02-24T23:28:22.883Z,37.90
2024-02-24T23:30:50.435Z,39.20
2024-02-24T23:33:18.156Z,39.60
2024-02-24T23:35:45.886Z,35.00
2024-02-24T23:38:13.919Z,30.60
2024-02-24T23:40:41.590Z,37.40
2024-02-24T23:43:09.254Z,35.60
2024-02-24T23:45:36.820Z,36.10
2024-02-24T23:48:04.639Z,41.10
2024-02-24T23:50:32.389Z,39.50
2024-02-24T23:53:00.010Z,40.60
2024-02-24T23:55:27.558Z,35.90
2024-02-24T23:57:55.121Z,34.70
